createdAt,value
2018-04-18T06:27:54.489Z,13.64
2018-04-18T06:30:20.198Z,15.75
2018-04-18T06:32:45.795Z,15.68
2018-04-18T06:35:11.579Z,15.30
2018-04-18T06:37:37.146Z,15.50
2018-04-18T06:40:02.715Z,15.58
2018-04-18T06:42:28.474Z,15.87
2018-04-18T06:44:54.029Z,15.72
2018-04-18T06:47:19.762Z,16.11
2018-04-18T06:49:45.316Z,16.32
2018-04-18T06:52:11.073Z,16.16
2018-04-18T06:54:36.621Z,16.35
2018-04-18T06:57:02.331Z,16.44
2018-04-18T06:59:27.869Z,16.49
2018-04-18T07:01:53.593Z,16.38
2018-04-18T07:04:19.152Z,16.54
2018-04-18T07:06:44.981Z,16.80
2018-04-18T07:09:10.527Z,16.61
2018-04-18T07:11:36.354Z,16.84
2018-04-18T07:14:01.963Z,16.65
2018-04-18T07:16:27.647Z,16.64
2018-04-18T07:18:53.195Z,16.83
2018-04-18T07:21:19.138Z,17.00
2018-04-18T07:23:44.675Z,17.23
2018-04-18T07:26:10.271Z,17.39
2018-04-18T07:28:36.009Z,17.09
2018-04-18T07:31:01.558Z,17.22
2018-04-18T07:33:27.337Z,17.11
2018-04-18T07:35:52.898Z,17.69
2018-04-18T07:38:18.655Z,17.54
2018-04-18T07:40:44.238Z,17.59
2018-04-18T07:43:10.054Z,17.75
2018-04-18T07:45:35.634Z,17.99
2018-04-18T07:48:01.491Z,17.71
2018-04-18T07:50:27.056Z,17.93
2018-04-18T07:52:52.761Z,17.98
2018-04-18T07:55:18.326Z,18.20
2018-04-18T07:57:44.009Z,18.29
2018-04-18T08:00:09.547Z,18.29
2018-04-18T08:02:35.376Z,18.41
2018-04-18T08:05:01.019Z,18.43
2018-04-18T08:07:26.830Z,18.99
2018-04-18T08:09:52.405Z,18.99
2018-04-18T08:12:18.124Z,19.23
2018-04-18T08:14:43.678Z,19.40
2018-04-18T08:17:09.432Z,19.11
2018-04-18T08:19:34.989Z,19.30
2018-04-18T08:22:00.588Z,19.04
2018-04-18T08:24:26.394Z,19.27
2018-04-18T08:26:51.932Z,19.29
2018-04-18T08:29:17.675Z,19.47
2018-04-18T08:31:43.215Z,19.38
2018-04-18T08:34:09.020Z,19.74
2018-04-18T08:36:34.603Z,19.82
2018-04-18T08:39:00.370Z,19.69
2018-04-18T08:41:25.937Z,19.93
2018-04-18T08:43:51.730Z,19.97
2018-04-18T08:46:17.285Z,20.12
2018-04-18T08:48:43.133Z,20.27
2018-04-18T08:51:08.773Z,20.37
2018-04-18T08:53:34.585Z,20.42
2018-04-18T08:56:00.139Z,20.65
2018-04-18T08:58:25.894Z,20.68
2018-04-18T09:00:51.515Z,20.79
2018-04-18T09:03:17.250Z,20.74
2018-04-18T09:05:42.788Z,20.82
2018-04-18T09:08:08.514Z,20.94
2018-04-18T09:10:34.083Z,21.05
2018-04-18T09:12:59.848Z,21.17
2018-04-18T09:15:25.422Z,21.18
2018-04-18T09:17:51.006Z,21.26
2018-04-18T09:20:16.763Z,21.44
2018-04-18T09:22:42.305Z,21.59
2018-04-18T09:25:08.146Z,21.77
2018-04-18T09:27:33.697Z,21.75
2018-04-18T09:29:59.386Z,21.81
2018-04-18T09:32:24.943Z,22.09
2018-04-18T09:34:50.700Z,22.04
2018-04-18T09:37:16.267Z,22.16
2018-04-18T09:39:42.069Z,22.25
2018-04-18T09:42:07.639Z,22.32
2018-04-18T09:44:33.300Z,22.48
2018-04-18T09:46:58.877Z,22.71
2018-04-18T09:49:24.811Z,22.64
2018-04-18T09:51:50.378Z,22.73
2018-04-18T09:54:16.120Z,22.92
2018-04-18T09:56:41.722Z,22.93
2018-04-18T09:59:07.464Z,23.11
2018-04-18T10:01:42.184Z,23.11
2018-04-18T10:04:10.839Z,23.18
2018-04-18T10:06:36.394Z,23.23
2018-04-18T10:09:02.162Z,23.52
2018-04-18T10:11:27.771Z,23.45
2018-04-18T10:13:53.469Z,23.56
2018-04-18T10:16:19.109Z,23.56
2018-04-18T10:18:44.865Z,23.62
2018-04-18T10:21:10.411Z,23.73
2018-04-18T10:23:35.961Z,23.81
2018-04-18T10:26:01.895Z,23.58
2018-04-18T10:28:27.423Z,23.56
2018-04-18T10:30:53.192Z,23.62
2018-04-18T10:33:18.821Z,23.71
2018-04-18T10:35:44.512Z,23.76
2018-04-18T10:38:10.156Z,23.70
2018-04-18T10:40:35.908Z,23.86
2018-04-18T10:43:01.452Z,23.77
2018-04-18T10:45:27.192Z,23.83
2018-04-18T10:47:52.735Z,23.91
2018-04-18T10:50:18.518Z,23.87
2018-04-18T10:52:44.057Z,23.88
2018-04-18T10:55:09.768Z,24.00
2018-04-18T10:57:35.350Z,24.12
2018-04-18T11:00:00.918Z,23.99
2018-04-18T11:02:26.664Z,24.36
2018-04-18T11:04:52.233Z,24.37
2018-04-18T11:07:17.950Z,24.49
2018-04-18T11:09:43.482Z,25.07
2018-04-18T11:12:09.182Z,24.72
2018-04-18T11:14:34.738Z,24.88
2018-04-18T11:17:00.444Z,24.83
2018-04-18T11:19:26.046Z,24.49
2018-04-18T11:21:51.878Z,24.79
2018-04-18T11:24:17.491Z,24.85
2018-04-18T11:26:43.211Z,24.83
2018-04-18T11:29:08.760Z,24.53
2018-04-18T11:31:34.457Z,24.89
2018-04-18T11:34:00.356Z,24.97
2018-04-18T11:36:25.896Z,24.95
2018-04-18T11:38:51.645Z,25.10
2018-04-18T11:41:17.189Z,24.94
2018-04-18T11:43:42.964Z,25.03
2018-04-18T11:46:08.515Z,24.91
2018-04-18T11:48:34.253Z,25.10
2018-04-18T11:50:59.806Z,25.13
2018-04-18T11:53:25.603Z,25.32
2018-04-18T11:55:51.171Z,25.67
2018-04-18T11:58:16.985Z,25.40
2018-04-18T12:00:42.526Z,25.30
2018-04-18T12:03:08.315Z,25.41
2018-04-18T12:05:33.884Z,25.60
2018-04-18T12:07:59.665Z,25.71
2018-04-18T12:10:25.211Z,25.63
2018-04-18T12:12:50.771Z,25.93
2018-04-18T12:15:16.592Z,25.95
2018-04-18T12:17:42.124Z,25.26
2018-04-18T12:20:07.911Z,25.53
2018-04-18T12:22:33.488Z,25.68
2018-04-18T12:24:59.252Z,25.74
2018-04-18T12:27:24.822Z,25.51
2018-04-18T12:29:50.685Z,25.71
2018-04-18T12:32:16.591Z,25.99
2018-04-18T12:34:42.309Z,25.85
2018-04-18T12:37:07.850Z,26.06
2018-04-18T12:39:33.636Z,26.33
2018-04-18T12:41:59.185Z,26.21
2018-04-18T12:44:24.880Z,26.04
2018-04-18T12:46:50.514Z,26.09
2018-04-18T12:49:17.202Z,26.20
2018-04-18T12:51:42.764Z,26.50
2018-04-18T12:54:08.515Z,26.60
2018-04-18T12:56:34.056Z,26.45
2018-04-18T12:58:59.859Z,26.49
2018-04-18T13:01:25.412Z,26.47
2018-04-18T13:03:51.136Z,26.10
2018-04-18T13:06:16.682Z,26.52
2018-04-18T13:08:42.355Z,26.48
2018-04-18T13:11:07.945Z,26.47
2018-04-18T13:13:33.493Z,26.41
2018-04-18T13:15:59.243Z,26.72
2018-04-18T13:18:24.789Z,26.49
2018-04-18T13:20:50.613Z,26.81
2018-04-18T13:23:16.160Z,26.48
2018-04-18T13:25:41.854Z,26.78
2018-04-18T13:28:07.477Z,26.64
2018-04-18T13:30:33.202Z,26.84
2018-04-18T13:32:58.777Z,26.93
2018-04-18T13:35:24.565Z,26.80
2018-04-18T13:37:50.201Z,26.63
2018-04-18T13:40:15.858Z,26.77
2018-04-18T13:42:41.400Z,27.10
2018-04-18T13:45:07.103Z,27.34
2018-04-18T13:47:32.711Z,27.24
2018-04-18T13:49:58.409Z,27.28
2018-04-18T13:52:23.944Z,27.19
2018-04-18T13:54:49.787Z,27.19
2018-04-18T13:57:15.278Z,27.16
2018-04-18T13:59:40.821Z,27.44
2018-04-18T14:02:06.640Z,27.05
2018-04-18T14:04:32.275Z,27.38
2018-04-18T14:06:57.837Z,27.46
2018-04-18T14:09:23.399Z,27.61
2018-04-18T14:11:49.109Z,27.24
2018-04-18T14:14:14.885Z,26.86
2018-04-18T14:16:40.433Z,27.38
2018-04-18T14:19:06.065Z,27.57
2018-04-18T14:21:31.768Z,27.15
2018-04-18T14:23:57.499Z,27.27
2018-04-18T14:26:23.073Z,27.46
2018-04-18T14:28:48.640Z,27.57
2018-04-18T14:31:14.327Z,28.07
2018-04-18T14:33:39.887Z,27.97
2018-04-18T14:36:05.635Z,27.72
2018-04-18T14:38:31.236Z,27.75
2018-04-18T14:40:56.988Z,27.63
2018-04-18T14:43:22.535Z,27.85
2018-04-18T14:45:48.392Z,27.78
2018-04-18T14:48:13.884Z,27.86
2018-04-18T14:50:39.453Z,28.00
2018-04-18T14:53:05.220Z,27.76
2018-04-18T14:55:30.876Z,28.05
2018-04-18T14:57:56.620Z,28.15
2018-04-18T15:00:22.173Z,28.18
2018-04-18T15:02:48.033Z,28.18
2018-04-18T15:05:13.646Z,28.39
2018-04-18T15:07:39.291Z,28.57
2018-04-18T15:10:04.844Z,28.30
2018-04-18T15:12:30.390Z,28.46
2018-04-18T15:14:56.157Z,28.59
2018-04-18T15:17:21.768Z,28.69
2018-04-18T15:19:47.583Z,28.52
2018-04-18T15:22:13.140Z,28.95
2018-04-18T15:24:39.046Z,28.88
2018-04-18T15:27:04.616Z,28.53
2018-04-18T15:29:30.325Z,29.05
2018-04-18T15:31:55.920Z,29.47
2018-04-18T15:34:21.669Z,29.68
2018-04-18T15:36:47.225Z,29.05
2018-04-18T15:39:12.927Z,29.12
2018-04-18T15:41:38.469Z,28.49
2018-04-18T15:44:04.388Z,28.19
2018-04-18T15:46:29.924Z,27.83
2018-04-18T15:48:55.645Z,27.82
2018-04-18T15:51:21.212Z,27.42
2018-04-18T15:53:46.909Z,27.32
2018-04-18T15:56:12.466Z,27.78
2018-04-18T15:58:38.266Z,27.49
2018-04-18T16:01:03.810Z,27.16
2018-04-18T16:03:29.647Z,27.18
2018-04-18T16:05:55.252Z,27.50
2018-04-18T16:08:21.062Z,27.41
2018-04-18T16:10:46.608Z,26.91
2018-04-18T16:13:12.405Z,26.88
2018-04-18T16:15:37.976Z,27.09
2018-04-18T16:18:03.743Z,27.08
2018-04-18T16:20:29.351Z,27.00
2018-04-18T16:22:54.900Z,26.85
2018-04-18T16:25:20.642Z,27.13
2018-04-18T16:27:46.185Z,26.45
2018-04-18T16:30:40.255Z,26.48
2018-04-18T16:33:05.952Z,26.69
2018-04-18T16:35:31.514Z,26.82
2018-04-18T16:37:57.065Z,26.85
2018-04-18T16:40:22.857Z,26.49
2018-04-18T16:42:48.409Z,26.50
2018-04-18T16:45:14.095Z,26.44
2018-04-18T16:47:39.733Z,26.35
2018-04-18T16:50:05.476Z,26.32
2018-04-18T16:52:31.029Z,26.40
2018-04-18T16:54:56.931Z,26.29
2018-04-18T16:57:22.478Z,26.74
2018-04-18T16:59:48.230Z,26.12
2018-04-18T17:02:13.785Z,26.14
2018-04-18T17:04:39.532Z,26.25
2018-04-18T17:07:05.066Z,25.85
2018-04-18T17:09:30.779Z,26.02
2018-04-18T17:11:56.550Z,25.98
2018-04-18T17:14:22.281Z,25.99
2018-04-18T17:16:47.880Z,25.82
2018-04-18T17:19:13.583Z,25.80
2018-04-18T17:21:39.128Z,25.85
2018-04-18T17:24:04.856Z,25.84
2018-04-18T17:26:30.407Z,25.90
2018-04-18T17:28:56.203Z,25.98
2018-04-18T17:31:21.869Z,25.87
2018-04-18T17:33:47.717Z,25.81
2018-04-18T17:36:13.249Z,25.62
2018-04-18T17:38:38.803Z,25.62
2018-04-18T17:41:04.521Z,25.51
2018-04-18T17:43:30.085Z,25.40
2018-04-18T17:45:55.750Z,25.46
2018-04-18T17:48:21.308Z,25.34
2018-04-18T17:50:47.048Z,25.60
2018-04-18T17:53:12.661Z,25.28
2018-04-18T17:55:38.350Z,25.08
2018-04-18T17:58:03.926Z,25.25
2018-04-18T18:00:29.655Z,25.08
2018-04-18T18:02:55.215Z,25.02
2018-04-18T18:05:21.624Z,24.91
2018-04-18T18:07:47.177Z,24.88
2018-04-18T18:10:12.871Z,25.15
2018-04-18T18:12:38.505Z,24.88
2018-04-18T18:15:04.498Z,24.88
2018-04-18T18:17:30.096Z,25.10
2018-04-18T18:19:55.791Z,24.59
2018-04-18T18:22:21.327Z,24.58
2018-04-18T18:24:47.097Z,24.65
2018-04-18T18:27:12.655Z,24.43
2018-04-18T18:29:38.319Z,24.35
2018-04-18T18:32:03.864Z,24.13
2018-04-18T18:34:29.419Z,24.14
2018-04-18T18:36:55.938Z,24.13
2018-04-18T18:39:21.526Z,24.23
2018-04-18T18:41:48.811Z,23.98
2018-04-18T18:44:14.451Z,23.93
2018-04-18T18:46:40.347Z,23.81
2018-04-18T18:49:05.888Z,23.84
2018-04-18T18:51:31.588Z,23.77
2018-04-18T18:53:57.134Z,23.75
2018-04-18T18:56:22.837Z,23.78
2018-04-18T18:58:48.403Z,23.90
2018-04-18T19:01:14.196Z,23.58
2018-04-18T19:03:39.739Z,23.71
2018-04-18T19:06:05.509Z,23.33
2018-04-18T19:08:31.052Z,23.55
2018-04-18T19:10:56.745Z,23.56
2018-04-18T19:13:22.289Z,23.44
2018-04-18T19:15:48.049Z,23.20
2018-04-18T19:18:13.622Z,23.40
2018-04-18T19:20:39.289Z,23.40
2018-04-18T19:23:04.851Z,23.18
2018-04-18T19:25:30.667Z,23.17
2018-04-18T19:27:56.218Z,23.03
2018-04-18T19:30:21.815Z,22.92
2018-04-18T19:32:47.537Z,23.35
2018-04-18T19:35:13.103Z,22.92
2018-04-18T19:37:38.884Z,22.84
2018-04-18T19:40:04.446Z,23.41
2018-04-18T19:42:30.271Z,23.09
2018-04-18T19:44:55.792Z,22.87
2018-04-18T19:47:21.509Z,22.80
2018-04-18T19:49:47.158Z,22.80
2018-04-18T19:52:13.040Z,23.30
2018-04-18T19:54:38.582Z,22.86
2018-04-18T19:57:04.305Z,22.80
2018-04-18T19:59:29.872Z,22.51
2018-04-18T20:01:55.626Z,22.47
2018-04-18T20:04:21.176Z,22.57
2018-04-18T20:06:47.543Z,22.33
2018-04-18T20:09:13.148Z,22.44
2018-04-18T20:11:38.909Z,22.38
2018-04-18T20:14:04.472Z,22.86
2018-04-18T20:16:30.179Z,22.48
2018-04-18T20:18:55.751Z,22.13
2018-04-18T20:21:21.286Z,22.14
2018-04-18T20:23:47.325Z,22.20
2018-04-18T20:26:12.870Z,22.17
2018-04-18T20:28:38.570Z,22.07
2018-04-18T20:31:04.191Z,21.98
2018-04-18T20:33:30.074Z,22.01
2018-04-18T20:35:55.593Z,22.13
2018-04-18T20:38:21.631Z,22.00
2018-04-18T20:40:47.260Z,21.92
2018-04-18T20:43:13.035Z,21.86
2018-04-18T20:45:38.673Z,21.80
2018-04-18T20:48:04.488Z,21.62
2018-04-18T20:50:30.051Z,21.69
2018-04-18T20:52:55.748Z,21.63
2018-04-18T20:55:21.288Z,21.63
2018-04-18T20:57:47.348Z,21.35
2018-04-18T21:00:13.303Z,21.47
2018-04-18T21:02:39.063Z,21.51
2018-04-18T21:05:04.617Z,21.48
2018-04-18T21:07:30.191Z,21.47
2018-04-18T21:09:55.950Z,21.41
2018-04-18T21:12:21.511Z,21.92
2018-04-18T21:14:47.630Z,21.47
2018-04-18T21:17:13.392Z,21.37
2018-04-18T21:19:38.935Z,21.45
2018-04-18T21:24:37.081Z,21.47
2018-04-18T21:27:02.796Z,21.77
2018-04-18T21:29:28.377Z,21.76
2018-04-18T21:31:53.949Z,21.25
2018-04-18T21:34:19.688Z,21.09
2018-04-18T21:36:45.241Z,20.85
2018-04-18T21:39:11.270Z,20.88
2018-04-18T21:41:36.833Z,20.82
2018-04-18T21:44:02.599Z,20.78
2018-04-18T21:46:28.156Z,20.73
2018-04-18T21:48:53.917Z,20.67
2018-04-18T21:51:19.456Z,20.55
2018-04-18T21:53:45.225Z,20.38
2018-04-18T21:56:10.769Z,20.51
2018-04-18T21:58:36.608Z,20.38
2018-04-18T22:01:02.136Z,20.56
2018-04-18T22:03:28.199Z,20.40
2018-04-18T22:05:54.205Z,20.12
2018-04-18T22:08:20.018Z,20.09
2018-04-18T22:10:45.583Z,20.02
2018-04-18T22:13:11.334Z,19.95
2018-04-18T22:15:36.894Z,19.99
2018-04-18T22:18:02.669Z,19.98
2018-04-18T22:20:28.224Z,19.88
2018-04-18T22:22:53.945Z,19.93
2018-04-18T22:25:19.518Z,19.78
2018-04-18T22:27:45.072Z,19.95
2018-04-18T22:30:10.821Z,19.73
2018-04-18T22:32:36.363Z,19.88
2018-04-18T22:35:02.073Z,19.75
2018-04-18T22:37:27.795Z,19.87
2018-04-18T22:39:53.358Z,19.60
2018-04-18T22:42:19.190Z,19.29
2018-04-18T22:44:44.795Z,19.14
2018-04-18T22:47:10.608Z,19.02
2018-04-18T22:49:36.128Z,19.13
2018-04-18T22:52:02.065Z,18.84
2018-04-18T22:54:27.622Z,18.66
2018-04-18T22:56:53.328Z,18.75
